Hidden Valley, Nevada
Current Conditions -  °F | °C
As of 6:55 PM on Friday 21 Nov 2014 (Local Time) from KRNO Reporting Station
Overcast Overcast  
Wind Chill: 50°   Ceiling: 6000
Heat Index: 50°   Visibility: 10mi
Dew Point: 31°   Wind: 8mph
Humidity: 48%   Direction: 80°E
Pressure: 30.05"   Gusts: NA
Location:  39.4944°N, 119.746°W
Report Text: KRNO 220255Z 08007KT 10SM BKN060 OVC100 10/M01 A3005 RMK AO2 SLP169 T01001006 53004
Loading
Personal Weather Stations






























Interactive Weather Map New forecast layout! Learn more

10-Day Weather Forecast

Advertisements
Track Severe Weather on mobile